sensor_id;sensor_type;location;lat;lon;timestamp;temperature;humidity
4874;DHT22;2451;49.970;9.068;2023-03-19T00:00:02;10.60;99.90
4874;DHT22;2451;49.970;9.068;2023-03-19T00:02:28;10.60;99.90
4874;DHT22;2451;49.970;9.068;2023-03-19T00:04:54;10.60;99.90
4874;DHT22;2451;49.970;9.068;2023-03-19T00:07:19;10.60;99.90
4874;DHT22;2451;49.970;9.068;2023-03-19T00:09:45;10.50;99.90
4874;DHT22;2451;49.970;9.068;2023-03-19T00:12:12;10.50;99.90
4874;DHT22;2451;49.970;9.068;2023-03-19T00:14:38;10.60;99.90
4874;DHT22;2451;49.970;9.068;2023-03-19T00:17:03;10.50;99.90
4874;DHT22;2451;49.970;9.068;2023-03-19T00:19:29;10.50;99.90
4874;DHT22;2451;49.970;9.068;2023-03-19T00:21:57;10.50;99.90
4874;DHT22;2451;49.970;9.068;2023-03-19T00:24:22;10.50;99.90
4874;DHT22;2451;49.970;9.068;2023-03-19T00:26:48;10.40;99.90
4874;DHT22;2451;49.970;9.068;2023-03-19T00:29:14;10.30;99.90
4874;DHT22;2451;49.970;9.068;2023-03-19T00:31:40;10.20;99.90
4874;DHT22;2451;49.970;9.068;2023-03-19T00:34:06;10.20;99.90
4874;DHT22;2451;49.970;9.068;2023-03-19T00:36:33;10.20;99.90
4874;DHT22;2451;49.970;9.068;2023-03-19T00:38:58;10.20;99.90
4874;DHT22;2451;49.970;9.068;2023-03-19T00:41:24;10.20;99.90
4874;DHT22;2451;49.970;9.068;2023-03-19T00:43:54;10.30;99.90
4874;DHT22;2451;49.970;9.068;2023-03-19T00:46:19;10.30;99.90
4874;DHT22;2451;49.970;9.068;2023-03-19T00:48:45;10.40;99.90
4874;DHT22;2451;49.970;9.068;2023-03-19T00:51:11;10.40;99.90
4874;DHT22;2451;49.970;9.068;2023-03-19T00:53:40;10.40;99.90
4874;DHT22;2451;49.970;9.068;2023-03-19T00:56:08;10.40;99.90
4874;DHT22;2451;49.970;9.068;2023-03-19T00:58:34;10.30;99.90
4874;DHT22;2451;49.970;9.068;2023-03-19T01:01:00;10.30;99.90
4874;DHT22;2451;49.970;9.068;2023-03-19T01:03:26;10.30;99.90
4874;DHT22;2451;49.970;9.068;2023-03-19T01:05:52;10.20;99.90
4874;DHT22;2451;49.970;9.068;2023-03-19T01:08:18;10.20;99.90
4874;DHT22;2451;49.970;9.068;2023-03-19T01:10:44;10.20;99.90
4874;DHT22;2451;49.970;9.068;2023-03-19T01:13:11;10.20;99.90
4874;DHT22;2451;49.970;9.068;2023-03-19T01:15:38;10.20;99.90
4874;DHT22;2451;49.970;9.068;2023-03-19T01:18:04;10.20;99.90
4874;DHT22;2451;49.970;9.068;2023-03-19T01:20:30;10.10;99.90
4874;DHT22;2451;49.970;9.068;2023-03-19T01:22:55;10.20;99.90
4874;DHT22;2451;49.970;9.068;2023-03-19T01:25:21;10.10;99.90
4874;DHT22;2451;49.970;9.068;2023-03-19T01:27:47;10.10;99.90
4874;DHT22;2451;49.970;9.068;2023-03-19T01:30:12;10.10;99.90
4874;DHT22;2451;49.970;9.068;2023-03-19T01:32:38;10.10;99.90
4874;DHT22;2451;49.970;9.068;2023-03-19T01:35:04;10.10;99.90
4874;DHT22;2451;49.970;9.068;2023-03-19T01:37:30;10.10;99.90
4874;DHT22;2451;49.970;9.068;2023-03-19T01:39:56;10.10;99.90
4874;DHT22;2451;49.970;9.068;2023-03-19T01:42:22;10.00;99.90
4874;DHT22;2451;49.970;9.068;2023-03-19T01:44:47;10.00;99.90
4874;DHT22;2451;49.970;9.068;2023-03-19T01:47:17;9.90;99.90
4874;DHT22;2451;49.970;9.068;2023-03-19T01:49:48;9.90;99.90
4874;DHT22;2451;49.970;9.068;2023-03-19T01:52:15;9.90;99.90
4874;DHT22;2451;49.970;9.068;2023-03-19T01:54:42;9.80;99.90
4874;DHT22;2451;49.970;9.068;2023-03-19T01:57:11;9.80;99.90
4874;DHT22;2451;49.970;9.068;2023-03-19T01:59:47;9.90;99.90
4874;DHT22;2451;49.970;9.068;2023-03-19T02:04:48;9.90;99.90
4874;DHT22;2451;49.970;9.068;2023-03-19T02:07:15;9.90;99.90
4874;DHT22;2451;49.970;9.068;2023-03-19T02:09:42;9.90;99.90
4874;DHT22;2451;49.970;9.068;2023-03-19T02:12:08;9.90;99.90
4874;DHT22;2451;49.970;9.068;2023-03-19T02:14:34;9.80;99.90
4874;DHT22;2451;49.970;9.068;2023-03-19T02:17:00;9.90;99.90
4874;DHT22;2451;49.970;9.068;2023-03-19T02:19:45;9.80;99.90
4874;DHT22;2451;49.970;9.068;2023-03-19T02:22:13;9.80;99.90
4874;DHT22;2451;49.970;9.068;2023-03-19T02:24:55;9.90;99.90
4874;DHT22;2451;49.970;9.068;2023-03-19T02:27:23;9.80;99.90
4874;DHT22;2451;49.970;9.068;2023-03-19T02:29:48;9.90;99.90
4874;DHT22;2451;49.970;9.068;2023-03-19T02:32:14;9.90;99.90
4874;DHT22;2451;49.970;9.068;2023-03-19T02:34:41;9.90;99.90
4874;DHT22;2451;49.970;9.068;2023-03-19T02:37:18;9.90;99.90
4874;DHT22;2451;49.970;9.068;2023-03-19T02:40:00;9.80;99.90
4874;DHT22;2451;49.970;9.068;2023-03-19T02:42:29;9.80;99.90
4874;DHT22;2451;49.970;9.068;2023-03-19T02:44:56;9.70;99.90
4874;DHT22;2451;49.970;9.068;2023-03-19T02:47:23;9.70;99.90
4874;DHT22;2451;49.970;9.068;2023-03-19T02:49:48;9.60;99.90
4874;DHT22;2451;49.970;9.068;2023-03-19T02:52:14;9.60;99.90
4874;DHT22;2451;49.970;9.068;2023-03-19T02:54:40;9.50;99.90
4874;DHT22;2451;49.970;9.068;2023-03-19T02:57:06;9.50;99.90
4874;DHT22;2451;49.970;9.068;2023-03-19T02:59:31;9.50;99.90
4874;DHT22;2451;49.970;9.068;2023-03-19T03:01:57;9.50;99.90
4874;DHT22;2451;49.970;9.068;2023-03-19T03:04:22;9.40;99.90
4874;DHT22;2451;49.970;9.068;2023-03-19T03:06:48;9.40;99.90
4874;DHT22;2451;49.970;9.068;2023-03-19T03:09:13;9.40;99.90
4874;DHT22;2451;49.970;9.068;2023-03-19T03:11:44;9.40;99.90
4874;DHT22;2451;49.970;9.068;2023-03-19T03:14:10;9.40;99.90
4874;DHT22;2451;49.970;9.068;2023-03-19T03:16:36;9.40;99.90
4874;DHT22;2451;49.970;9.068;2023-03-19T03:19:02;9.40;99.90
4874;DHT22;2451;49.970;9.068;2023-03-19T03:21:28;9.40;99.90
4874;DHT22;2451;49.970;9.068;2023-03-19T03:23:53;9.40;99.90
4874;DHT22;2451;49.970;9.068;2023-03-19T03:26:19;9.40;99.90
4874;DHT22;2451;49.970;9.068;2023-03-19T03:28:45;9.40;99.90
4874;DHT22;2451;49.970;9.068;2023-03-19T03:31:10;9.40;99.90
4874;DHT22;2451;49.970;9.068;2023-03-19T03:33:36;9.40;99.90
4874;DHT22;2451;49.970;9.068;2023-03-19T03:36:02;9.40;99.90
4874;DHT22;2451;49.970;9.068;2023-03-19T03:38:28;9.40;99.90
4874;DHT22;2451;49.970;9.068;2023-03-19T03:40:53;9.40;99.90
4874;DHT22;2451;49.970;9.068;2023-03-19T03:43:20;9.40;99.90
4874;DHT22;2451;49.970;9.068;2023-03-19T03:45:46;9.40;99.90
4874;DHT22;2451;49.970;9.068;2023-03-19T03:48:13;9.40;99.90
4874;DHT22;2451;49.970;9.068;2023-03-19T03:50:42;9.40;99.90
4874;DHT22;2451;49.970;9.068;2023-03-19T03:53:08;9.40;99.90
4874;DHT22;2451;49.970;9.068;2023-03-19T03:55:34;9.40;99.90
4874;DHT22;2451;49.970;9.068;2023-03-19T03:58:00;9.40;99.90
4874;DHT22;2451;49.970;9.068;2023-03-19T04:00:26;9.30;99.90
4874;DHT22;2451;49.970;9.068;2023-03-19T04:02:52;9.30;99.90
4874;DHT22;2451;49.970;9.068;2023-03-19T04:05:17;9.30;99.90
4874;DHT22;2451;49.970;9.068;2023-03-19T04:07:43;9.30;99.90
4874;DHT22;2451;49.970;9.068;2023-03-19T04:10:10;9.30;99.90
4874;DHT22;2451;49.970;9.068;2023-03-19T04:12:39;9.30;99.90
4874;DHT22;2451;49.970;9.068;2023-03-19T04:15:06;9.30;99.90
4874;DHT22;2451;49.970;9.068;2023-03-19T04:17:33;9.30;99.90
4874;DHT22;2451;49.970;9.068;2023-03-19T04:20:00;9.30;99.90
4874;DHT22;2451;49.970;9.068;2023-03-19T04:22:26;9.30;99.90
4874;DHT22;2451;49.970;9.068;2023-03-19T04:24:52;9.30;99.90
4874;DHT22;2451;49.970;9.068;2023-03-19T04:27:17;9.30;99.90
4874;DHT22;2451;49.970;9.068;2023-03-19T04:29:43;9.40;99.90
4874;DHT22;2451;49.970;9.068;2023-03-19T04:32:08;9.40;99.90
4874;DHT22;2451;49.970;9.068;2023-03-19T04:34:34;9.40;99.90
4874;DHT22;2451;49.970;9.068;2023-03-19T04:37:00;9.40;99.90
4874;DHT22;2451;49.970;9.068;2023-03-19T04:39:25;9.40;99.90
4874;DHT22;2451;49.970;9.068;2023-03-19T04:41:51;9.40;99.90
4874;DHT22;2451;49.970;9.068;2023-03-19T04:44:17;9.40;99.90
4874;DHT22;2451;49.970;9.068;2023-03-19T04:46:42;9.40;99.90
4874;DHT22;2451;49.970;9.068;2023-03-19T04:49:10;9.30;99.90
4874;DHT22;2451;49.970;9.068;2023-03-19T04:51:36;9.40;99.90
4874;DHT22;2451;49.970;9.068;2023-03-19T04:54:01;9.40;99.90
4874;DHT22;2451;49.970;9.068;2023-03-19T04:56:27;9.40;99.90
4874;DHT22;2451;49.970;9.068;2023-03-19T04:58:52;9.40;99.90
4874;DHT22;2451;49.970;9.068;2023-03-19T05:01:18;9.50;99.90
4874;DHT22;2451;49.970;9.068;2023-03-19T05:03:46;9.50;99.90
4874;DHT22;2451;49.970;9.068;2023-03-19T05:06:11;9.60;99.90
4874;DHT22;2451;49.970;9.068;2023-03-19T05:08:37;9.60;99.90
4874;DHT22;2451;49.970;9.068;2023-03-19T05:11:03;9.60;99.90
4874;DHT22;2451;49.970;9.068;2023-03-19T05:13:28;9.60;99.90
4874;DHT22;2451;49.970;9.068;2023-03-19T05:15:54;9.60;99.90
4874;DHT22;2451;49.970;9.068;2023-03-19T05:18:20;9.50;99.90
4874;DHT22;2451;49.970;9.068;2023-03-19T05:20:46;9.50;99.90
4874;DHT22;2451;49.970;9.068;2023-03-19T05:23:12;9.50;99.90
4874;DHT22;2451;49.970;9.068;2023-03-19T05:25:38;9.50;99.90
4874;DHT22;2451;49.970;9.068;2023-03-19T05:28:05;9.50;99.90
4874;DHT22;2451;49.970;9.068;2023-03-19T05:30:32;9.50;99.90
4874;DHT22;2451;49.970;9.068;2023-03-19T05:32:58;9.50;99.90
4874;DHT22;2451;49.970;9.068;2023-03-19T05:35:24;9.50;99.90
4874;DHT22;2451;49.970;9.068;2023-03-19T05:37:50;9.50;99.90
4874;DHT22;2451;49.970;9.068;2023-03-19T05:40:16;9.50;99.90
4874;DHT22;2451;49.970;9.068;2023-03-19T05:42:41;9.50;99.90
4874;DHT22;2451;49.970;9.068;2023-03-19T05:45:07;9.50;99.90
4874;DHT22;2451;49.970;9.068;2023-03-19T05:47:33;9.50;99.90
4874;DHT22;2451;49.970;9.068;2023-03-19T05:50:02;9.50;99.90
4874;DHT22;2451;49.970;9.068;2023-03-19T05:52:27;9.50;99.90
4874;DHT22;2451;49.970;9.068;2023-03-19T05:54:53;9.50;99.90
4874;DHT22;2451;49.970;9.068;2023-03-19T05:57:19;9.50;99.90
4874;DHT22;2451;49.970;9.068;2023-03-19T05:59:44;9.60;99.90
4874;DHT22;2451;49.970;9.068;2023-03-19T06:02:10;9.60;99.90
4874;DHT22;2451;49.970;9.068;2023-03-19T06:04:36;9.60;99.90
4874;DHT22;2451;49.970;9.068;2023-03-19T06:07:01;9.70;99.90
4874;DHT22;2451;49.970;9.068;2023-03-19T06:09:27;9.70;99.90
4874;DHT22;2451;49.970;9.068;2023-03-19T06:11:52;9.70;99.90
4874;DHT22;2451;49.970;9.068;2023-03-19T06:14:18;9.70;99.90
4874;DHT22;2451;49.970;9.068;2023-03-19T06:16:43;9.70;99.90
4874;DHT22;2451;49.970;9.068;2023-03-19T06:19:09;9.70;99.90
4874;DHT22;2451;49.970;9.068;2023-03-19T06:21:35;9.70;99.90
4874;DHT22;2451;49.970;9.068;2023-03-19T06:24:00;9.70;99.90
4874;DHT22;2451;49.970;9.068;2023-03-19T06:26:26;9.70;99.90
4874;DHT22;2451;49.970;9.068;2023-03-19T06:28:52;9.70;99.90
4874;DHT22;2451;49.970;9.068;2023-03-19T06:31:18;9.70;99.90
4874;DHT22;2451;49.970;9.068;2023-03-19T06:33:43;9.70;99.90
4874;DHT22;2451;49.970;9.068;2023-03-19T06:36:09;9.70;99.90
4874;DHT22;2451;49.970;9.068;2023-03-19T06:38:35;9.80;99.90
4874;DHT22;2451;49.970;9.068;2023-03-19T06:41:01;9.90;99.90
4874;DHT22;2451;49.970;9.068;2023-03-19T06:43:27;9.90;99.90
4874;DHT22;2451;49.970;9.068;2023-03-19T06:45:52;10.00;99.90
4874;DHT22;2451;49.970;9.068;2023-03-19T06:48:18;10.00;99.90
4874;DHT22;2451;49.970;9.068;2023-03-19T06:50:46;10.00;99.90
4874;DHT22;2451;49.970;9.068;2023-03-19T06:53:15;10.10;99.90
4874;DHT22;2451;49.970;9.068;2023-03-19T06:55:41;10.10;99.90
4874;DHT22;2451;49.970;9.068;2023-03-19T06:58:06;10.10;99.90
4874;DHT22;2451;49.970;9.068;2023-03-19T07:00:32;10.10;99.90
4874;DHT22;2451;49.970;9.068;2023-03-19T07:02:58;10.20;99.90
4874;DHT22;2451;49.970;9.068;2023-03-19T07:05:24;10.20;99.90
4874;DHT22;2451;49.970;9.068;2023-03-19T07:07:50;10.30;99.90
4874;DHT22;2451;49.970;9.068;2023-03-19T07:10:19;10.30;99.90
4874;DHT22;2451;49.970;9.068;2023-03-19T07:12:45;10.30;99.90
4874;DHT22;2451;49.970;9.068;2023-03-19T07:15:10;10.40;99.90
4874;DHT22;2451;49.970;9.068;2023-03-19T07:17:36;10.50;99.90
4874;DHT22;2451;49.970;9.068;2023-03-19T07:20:02;10.50;99.90
4874;DHT22;2451;49.970;9.068;2023-03-19T07:22:27;10.50;99.90
4874;DHT22;2451;49.970;9.068;2023-03-19T07:24:53;10.50;99.90
4874;DHT22;2451;49.970;9.068;2023-03-19T07:27:18;10.60;99.90
4874;DHT22;2451;49.970;9.068;2023-03-19T07:29:44;10.60;99.90
4874;DHT22;2451;49.970;9.068;2023-03-19T07:32:10;10.60;99.90
4874;DHT22;2451;49.970;9.068;2023-03-19T07:34:36;10.60;99.90
4874;DHT22;2451;49.970;9.068;2023-03-19T07:37:01;10.60;99.90
4874;DHT22;2451;49.970;9.068;2023-03-19T07:39:27;10.60;99.90
4874;DHT22;2451;49.970;9.068;2023-03-19T07:41:53;10.60;99.90
4874;DHT22;2451;49.970;9.068;2023-03-19T07:44:18;10.70;99.90
4874;DHT22;2451;49.970;9.068;2023-03-19T07:46:44;10.70;99.90
4874;DHT22;2451;49.970;9.068;2023-03-19T07:49:09;10.80;99.90
4874;DHT22;2451;49.970;9.068;2023-03-19T07:51:35;10.90;99.90
4874;DHT22;2451;49.970;9.068;2023-03-19T07:54:01;10.90;99.90
4874;DHT22;2451;49.970;9.068;2023-03-19T07:56:26;11.00;99.90
4874;DHT22;2451;49.970;9.068;2023-03-19T07:58:52;11.00;99.90
4874;DHT22;2451;49.970;9.068;2023-03-19T08:01:18;11.00;99.90
4874;DHT22;2451;49.970;9.068;2023-03-19T08:03:44;11.00;99.90
4874;DHT22;2451;49.970;9.068;2023-03-19T08:06:09;11.00;99.90
4874;DHT22;2451;49.970;9.068;2023-03-19T08:08:35;11.10;99.90
4874;DHT22;2451;49.970;9.068;2023-03-19T08:11:01;11.20;99.90
4874;DHT22;2451;49.970;9.068;2023-03-19T08:13:27;11.30;99.90
4874;DHT22;2451;49.970;9.068;2023-03-19T08:15:53;11.40;99.90
4874;DHT22;2451;49.970;9.068;2023-03-19T08:18:20;11.40;99.90
4874;DHT22;2451;49.970;9.068;2023-03-19T08:20:46;11.50;99.90
4874;DHT22;2451;49.970;9.068;2023-03-19T08:23:12;11.60;99.90
4874;DHT22;2451;49.970;9.068;2023-03-19T08:25:38;11.70;99.90
4874;DHT22;2451;49.970;9.068;2023-03-19T08:28:04;11.80;99.90
4874;DHT22;2451;49.970;9.068;2023-03-19T08:30:30;11.90;99.90
4874;DHT22;2451;49.970;9.068;2023-03-19T08:32:56;12.10;99.90
4874;DHT22;2451;49.970;9.068;2023-03-19T08:35:22;12.20;99.90
4874;DHT22;2451;49.970;9.068;2023-03-19T08:37:48;12.30;99.90
4874;DHT22;2451;49.970;9.068;2023-03-19T08:40:13;12.40;99.90
4874;DHT22;2451;49.970;9.068;2023-03-19T08:42:39;12.40;99.90
4874;DHT22;2451;49.970;9.068;2023-03-19T08:45:08;12.60;99.90
4874;DHT22;2451;49.970;9.068;2023-03-19T08:47:34;12.70;99.90
4874;DHT22;2451;49.970;9.068;2023-03-19T08:50:00;12.80;99.90
4874;DHT22;2451;49.970;9.068;2023-03-19T08:52:25;13.00;99.90
4874;DHT22;2451;49.970;9.068;2023-03-19T08:54:51;13.20;99.90
4874;DHT22;2451;49.970;9.068;2023-03-19T08:57:16;13.40;99.90
4874;DHT22;2451;49.970;9.068;2023-03-19T08:59:42;13.50;99.90
4874;DHT22;2451;49.970;9.068;2023-03-19T09:02:09;13.80;99.90
4874;DHT22;2451;49.970;9.068;2023-03-19T09:04:39;13.90;99.90
4874;DHT22;2451;49.970;9.068;2023-03-19T09:07:04;14.10;99.90
4874;DHT22;2451;49.970;9.068;2023-03-19T09:09:30;14.20;99.90
4874;DHT22;2451;49.970;9.068;2023-03-19T09:11:56;14.20;99.90
4874;DHT22;2451;49.970;9.068;2023-03-19T09:14:21;14.30;99.90
4874;DHT22;2451;49.970;9.068;2023-03-19T09:16:48;14.40;99.90
4874;DHT22;2451;49.970;9.068;2023-03-19T09:19:14;14.50;99.90
4874;DHT22;2451;49.970;9.068;2023-03-19T09:21:40;14.50;99.90
4874;DHT22;2451;49.970;9.068;2023-03-19T09:24:06;14.70;99.90
4874;DHT22;2451;49.970;9.068;2023-03-19T09:26:31;14.70;99.90
4874;DHT22;2451;49.970;9.068;2023-03-19T09:28:57;14.70;99.90
4874;DHT22;2451;49.970;9.068;2023-03-19T09:31:23;14.70;99.90
4874;DHT22;2451;49.970;9.068;2023-03-19T09:33:49;14.70;99.90
4874;DHT22;2451;49.970;9.068;2023-03-19T09:36:15;14.70;99.90
4874;DHT22;2451;49.970;9.068;2023-03-19T09:38:42;14.60;99.90
4874;DHT22;2451;49.970;9.068;2023-03-19T09:41:25;14.60;99.90
4874;DHT22;2451;49.970;9.068;2023-03-19T09:44:12;14.60;99.90
4874;DHT22;2451;49.970;9.068;2023-03-19T09:49:28;14.70;99.90
4874;DHT22;2451;49.970;9.068;2023-03-19T09:54:45;14.70;99.90
4874;DHT22;2451;49.970;9.068;2023-03-19T09:57:12;14.70;99.90
4874;DHT22;2451;49.970;9.068;2023-03-19T09:59:39;14.70;99.90
4874;DHT22;2451;49.970;9.068;2023-03-19T10:07:48;14.70;99.90
4874;DHT22;2451;49.970;9.068;2023-03-19T10:15:51;14.80;99.90
4874;DHT22;2451;49.970;9.068;2023-03-19T10:18:28;14.80;99.90
4874;DHT22;2451;49.970;9.068;2023-03-19T10:21:00;14.90;99.90
4874;DHT22;2451;49.970;9.068;2023-03-19T10:23:46;15.10;99.90
4874;DHT22;2451;49.970;9.068;2023-03-19T10:26:17;15.20;99.90
4874;DHT22;2451;49.970;9.068;2023-03-19T10:28:49;15.40;99.90
4874;DHT22;2451;49.970;9.068;2023-03-19T10:36:57;15.50;99.90
4874;DHT22;2451;49.970;9.068;2023-03-19T10:39:24;15.50;99.90
4874;DHT22;2451;49.970;9.068;2023-03-19T10:44:29;15.40;99.90
4874;DHT22;2451;49.970;9.068;2023-03-19T10:47:08;15.50;99.90
4874;DHT22;2451;49.970;9.068;2023-03-19T10:49:34;15.60;99.90
4874;DHT22;2451;49.970;9.068;2023-03-19T10:52:00;15.70;99.90
4874;DHT22;2451;49.970;9.068;2023-03-19T10:54:27;15.80;99.90
4874;DHT22;2451;49.970;9.068;2023-03-19T10:56:58;15.80;99.90
4874;DHT22;2451;49.970;9.068;2023-03-19T11:02:16;15.90;99.90
4874;DHT22;2451;49.970;9.068;2023-03-19T11:04:43;16.10;99.90
4874;DHT22;2451;49.970;9.068;2023-03-19T11:07:16;16.70;99.90
4874;DHT22;2451;49.970;9.068;2023-03-19T11:09:47;17.10;99.90
4874;DHT22;2451;49.970;9.068;2023-03-19T11:12:20;17.30;99.90
4874;DHT22;2451;49.970;9.068;2023-03-19T11:14:49;17.40;99.90
4874;DHT22;2451;49.970;9.068;2023-03-19T11:17:44;17.50;99.90
4874;DHT22;2451;49.970;9.068;2023-03-19T11:20:25;17.50;99.90
4874;DHT22;2451;49.970;9.068;2023-03-19T11:22:52;17.50;99.90
4874;DHT22;2451;49.970;9.068;2023-03-19T11:25:25;17.70;99.90
4874;DHT22;2451;49.970;9.068;2023-03-19T11:28:11;18.00;99.90
4874;DHT22;2451;49.970;9.068;2023-03-19T11:30:55;18.30;99.90
4874;DHT22;2451;49.970;9.068;2023-03-19T11:36:11;19.10;99.90
4874;DHT22;2451;49.970;9.068;2023-03-19T11:44:13;19.40;99.90
4874;DHT22;2451;49.970;9.068;2023-03-19T11:55:16;19.70;98.60
4874;DHT22;2451;49.970;9.068;2023-03-19T12:00:49;19.40;97.80
4874;DHT22;2451;49.970;9.068;2023-03-19T12:03:39;19.10;99.80
4874;DHT22;2451;49.970;9.068;2023-03-19T12:20:30;18.50;99.90
4874;DHT22;2451;49.970;9.068;2023-03-19T12:23:05;18.90;99.90
4874;DHT22;2451;49.970;9.068;2023-03-19T12:25:50;18.90;98.80
4874;DHT22;2451;49.970;9.068;2023-03-19T12:37:06;19.00;97.70
4874;DHT22;2451;49.970;9.068;2023-03-19T12:39:37;19.20;96.40
4874;DHT22;2451;49.970;9.068;2023-03-19T12:42:08;19.10;95.60
4874;DHT22;2451;49.970;9.068;2023-03-19T12:44:45;18.90;94.90
4874;DHT22;2451;49.970;9.068;2023-03-19T12:47:19;18.80;94.80
4874;DHT22;2451;49.970;9.068;2023-03-19T12:49:54;18.80;96.00
4874;DHT22;2451;49.970;9.068;2023-03-19T12:52:30;18.60;95.10
4874;DHT22;2451;49.970;9.068;2023-03-19T12:55:15;18.60;95.70
4874;DHT22;2451;49.970;9.068;2023-03-19T13:00:31;18.50;95.50
4874;DHT22;2451;49.970;9.068;2023-03-19T13:05:46;18.40;96.40
4874;DHT22;2451;49.970;9.068;2023-03-19T13:10:43;18.10;96.00
4874;DHT22;2451;49.970;9.068;2023-03-19T13:13:36;18.00;96.30
4874;DHT22;2451;49.970;9.068;2023-03-19T13:16:36;17.80;96.30
4874;DHT22;2451;49.970;9.068;2023-03-19T13:19:29;17.70;95.90
4874;DHT22;2451;49.970;9.068;2023-03-19T13:21:57;17.60;95.60
4874;DHT22;2451;49.970;9.068;2023-03-19T13:24:27;17.50;95.20
4874;DHT22;2451;49.970;9.068;2023-03-19T13:26:55;17.50;94.80
4874;DHT22;2451;49.970;9.068;2023-03-19T13:29:25;17.50;95.60
4874;DHT22;2451;49.970;9.068;2023-03-19T13:31:52;17.50;95.50
4874;DHT22;2451;49.970;9.068;2023-03-19T13:34:25;17.50;95.00
4874;DHT22;2451;49.970;9.068;2023-03-19T13:36:57;17.50;95.30
4874;DHT22;2451;49.970;9.068;2023-03-19T13:39:27;17.40;93.60
4874;DHT22;2451;49.970;9.068;2023-03-19T13:44:50;17.20;92.90
4874;DHT22;2451;49.970;9.068;2023-03-19T13:52:52;17.10;94.20
4874;DHT22;2451;49.970;9.068;2023-03-19T14:03:31;16.80;97.50
4874;DHT22;2451;49.970;9.068;2023-03-19T14:05:58;16.60;98.40
4874;DHT22;2451;49.970;9.068;2023-03-19T14:08:25;16.50;98.80
4874;DHT22;2451;49.970;9.068;2023-03-19T14:11:00;16.40;99.20
4874;DHT22;2451;49.970;9.068;2023-03-19T14:13:32;16.40;99.70
4874;DHT22;2451;49.970;9.068;2023-03-19T14:16:24;16.40;99.60
4874;DHT22;2451;49.970;9.068;2023-03-19T14:18:59;16.40;99.70
4874;DHT22;2451;49.970;9.068;2023-03-19T14:21:38;16.40;99.90
4874;DHT22;2451;49.970;9.068;2023-03-19T14:24:26;16.50;99.50
4874;DHT22;2451;49.970;9.068;2023-03-19T14:26:54;16.50;99.90
4874;DHT22;2451;49.970;9.068;2023-03-19T14:29:21;16.50;99.90
4874;DHT22;2451;49.970;9.068;2023-03-19T14:31:52;16.50;99.90
4874;DHT22;2451;49.970;9.068;2023-03-19T14:39:42;16.30;99.90
4874;DHT22;2451;49.970;9.068;2023-03-19T14:45:16;16.00;99.90
4874;DHT22;2451;49.970;9.068;2023-03-19T14:47:55;15.90;99.90
4874;DHT22;2451;49.970;9.068;2023-03-19T14:53:18;15.90;99.90
4874;DHT22;2451;49.970;9.068;2023-03-19T14:55:51;15.80;99.90
4874;DHT22;2451;49.970;9.068;2023-03-19T14:58:20;15.90;99.90
4874;DHT22;2451;49.970;9.068;2023-03-19T15:00:49;16.10;99.90
4874;DHT22;2451;49.970;9.068;2023-03-19T15:05:44;16.70;99.90
4874;DHT22;2451;49.970;9.068;2023-03-19T15:08:17;17.00;99.90
4874;DHT22;2451;49.970;9.068;2023-03-19T15:16:19;16.60;99.90
4874;DHT22;2451;49.970;9.068;2023-03-19T15:18:48;16.40;99.90
4874;DHT22;2451;49.970;9.068;2023-03-19T15:21:13;16.20;99.90
4874;DHT22;2451;49.970;9.068;2023-03-19T15:23:40;16.10;99.90
4874;DHT22;2451;49.970;9.068;2023-03-19T15:26:09;15.80;99.90
4874;DHT22;2451;49.970;9.068;2023-03-19T15:28:48;15.80;99.90
4874;DHT22;2451;49.970;9.068;2023-03-19T15:31:15;15.60;99.90
4874;DHT22;2451;49.970;9.068;2023-03-19T15:33:41;15.40;99.90
4874;DHT22;2451;49.970;9.068;2023-03-19T15:38:37;15.20;99.90
4874;DHT22;2451;49.970;9.068;2023-03-19T15:41:06;15.10;99.90
4874;DHT22;2451;49.970;9.068;2023-03-19T15:43:35;15.00;99.90
4874;DHT22;2451;49.970;9.068;2023-03-19T15:46:02;14.90;99.90
4874;DHT22;2451;49.970;9.068;2023-03-19T15:48:41;14.80;99.90
4874;DHT22;2451;49.970;9.068;2023-03-19T15:51:08;14.80;99.90
4874;DHT22;2451;49.970;9.068;2023-03-19T15:53:36;14.70;99.90
4874;DHT22;2451;49.970;9.068;2023-03-19T15:56:03;14.70;99.90
4874;DHT22;2451;49.970;9.068;2023-03-19T15:58:31;14.60;99.90
4874;DHT22;2451;49.970;9.068;2023-03-19T16:01:01;14.60;99.90
4874;DHT22;2451;49.970;9.068;2023-03-19T16:03:39;14.60;99.90
4874;DHT22;2451;49.970;9.068;2023-03-19T16:06:35;14.60;99.90
4874;DHT22;2451;49.970;9.068;2023-03-19T16:11:40;14.70;99.90
4874;DHT22;2451;49.970;9.068;2023-03-19T16:16:39;14.60;99.90
4874;DHT22;2451;49.970;9.068;2023-03-19T16:19:05;14.70;99.90
4874;DHT22;2451;49.970;9.068;2023-03-19T16:21:38;14.70;99.90
4874;DHT22;2451;49.970;9.068;2023-03-19T16:24:34;14.70;99.90
4874;DHT22;2451;49.970;9.068;2023-03-19T16:27:31;14.80;99.90
4874;DHT22;2451;49.970;9.068;2023-03-19T16:30:22;14.80;99.90
4874;DHT22;2451;49.970;9.068;2023-03-19T16:33:04;14.90;99.90
4874;DHT22;2451;49.970;9.068;2023-03-19T16:35:32;14.90;99.90
4874;DHT22;2451;49.970;9.068;2023-03-19T16:38:25;14.80;99.90
4874;DHT22;2451;49.970;9.068;2023-03-19T16:43:44;14.80;99.90
4874;DHT22;2451;49.970;9.068;2023-03-19T16:46:12;14.80;99.90
4874;DHT22;2451;49.970;9.068;2023-03-19T16:48:38;14.80;99.90
4874;DHT22;2451;49.970;9.068;2023-03-19T16:51:08;14.80;99.90
4874;DHT22;2451;49.970;9.068;2023-03-19T16:53:35;14.70;99.90
4874;DHT22;2451;49.970;9.068;2023-03-19T16:56:01;14.60;99.90
4874;DHT22;2451;49.970;9.068;2023-03-19T16:58:33;14.60;99.90
4874;DHT22;2451;49.970;9.068;2023-03-19T17:01:01;14.60;99.90
4874;DHT22;2451;49.970;9.068;2023-03-19T17:03:27;14.50;99.90
4874;DHT22;2451;49.970;9.068;2023-03-19T17:05:55;14.50;99.90
4874;DHT22;2451;49.970;9.068;2023-03-19T17:08:21;14.40;99.90
4874;DHT22;2451;49.970;9.068;2023-03-19T17:10:49;14.40;99.90
4874;DHT22;2451;49.970;9.068;2023-03-19T17:13:18;14.30;99.90
4874;DHT22;2451;49.970;9.068;2023-03-19T17:15:46;14.30;99.90
4874;DHT22;2451;49.970;9.068;2023-03-19T17:18:17;14.20;99.90
4874;DHT22;2451;49.970;9.068;2023-03-19T17:20:49;14.10;99.90
4874;DHT22;2451;49.970;9.068;2023-03-19T17:23:16;14.10;99.90
4874;DHT22;2451;49.970;9.068;2023-03-19T17:25:43;14.00;99.90
4874;DHT22;2451;49.970;9.068;2023-03-19T17:28:09;13.90;99.90
4874;DHT22;2451;49.970;9.068;2023-03-19T17:30:37;13.90;99.90
4874;DHT22;2451;49.970;9.068;2023-03-19T17:33:02;13.80;99.90
4874;DHT22;2451;49.970;9.068;2023-03-19T17:35:28;13.80;99.90
4874;DHT22;2451;49.970;9.068;2023-03-19T17:37:54;13.70;99.90
4874;DHT22;2451;49.970;9.068;2023-03-19T17:40:25;13.70;99.90
4874;DHT22;2451;49.970;9.068;2023-03-19T17:42:52;13.60;99.90
4874;DHT22;2451;49.970;9.068;2023-03-19T17:45:20;13.60;99.90
4874;DHT22;2451;49.970;9.068;2023-03-19T17:47:48;13.60;99.90
4874;DHT22;2451;49.970;9.068;2023-03-19T17:50:17;13.50;99.90
4874;DHT22;2451;49.970;9.068;2023-03-19T17:52:44;13.50;99.90
4874;DHT22;2451;49.970;9.068;2023-03-19T17:55:16;13.40;99.90
4874;DHT22;2451;49.970;9.068;2023-03-19T17:57:42;13.40;99.90
4874;DHT22;2451;49.970;9.068;2023-03-19T18:00:09;13.30;99.90
4874;DHT22;2451;49.970;9.068;2023-03-19T18:02:35;13.20;99.90
4874;DHT22;2451;49.970;9.068;2023-03-19T18:05:01;13.10;99.90
4874;DHT22;2451;49.970;9.068;2023-03-19T18:07:27;12.90;99.90
4874;DHT22;2451;49.970;9.068;2023-03-19T18:09:52;12.80;99.90
4874;DHT22;2451;49.970;9.068;2023-03-19T18:12:18;12.70;99.90
4874;DHT22;2451;49.970;9.068;2023-03-19T18:14:43;12.60;99.90
4874;DHT22;2451;49.970;9.068;2023-03-19T18:17:16;12.50;99.90
4874;DHT22;2451;49.970;9.068;2023-03-19T18:19:44;12.50;99.90
4874;DHT22;2451;49.970;9.068;2023-03-19T18:22:14;12.40;99.90